aviador You're here:

KGPH Decoded Metar

in
Report Time2017-04-25 06:15:00
UTC Time2017-04-25 06:34:15
Flight Rules vfr VFR
WindCalm
Visibility9999 m
Phenomena:N/A
Clouds:N/A
Expected CloudBase > 2,800 ft AGL from Temp-Dew spread
CeilingNone
Temp13°C
Dew Point06°C (63% RH)
AAT12.1°C
QNH1002 hPa
Raw Report
KGPH 250615Z AUTO 00000KT 10SM CLR 13/06 A2960 RMK AO2=

Extra information for KGPH:More info

Social comments